createdAt,value
2017-11-11T00:01:42.544Z,84.26
2017-11-11T00:07:46.810Z,84.23
2017-11-11T00:13:50.289Z,83.11
2017-11-11T00:19:53.775Z,83.90
2017-11-11T00:25:57.276Z,83.42
2017-11-11T00:32:01.453Z,83.37
2017-11-11T00:38:04.934Z,83.20
2017-11-11T00:44:08.724Z,83.52
2017-11-11T00:50:12.190Z,84.21
2017-11-11T00:56:15.694Z,84.17
2017-11-11T01:02:19.179Z,84.42
2017-11-11T01:08:22.673Z,83.97
2017-11-11T01:14:27.285Z,83.08
2017-11-11T01:20:31.552Z,82.62
2017-11-11T01:26:35.045Z,82.30
2017-11-11T01:32:38.542Z,81.46
2017-11-11T01:38:42.045Z,80.63
2017-11-11T01:44:46.296Z,81.12
2017-11-11T01:50:49.804Z,81.06
2017-11-11T01:56:53.305Z,80.57
2017-11-11T02:02:57.374Z,80.95
2017-11-11T02:09:01.147Z,81.59
2017-11-11T02:15:04.867Z,81.49
2017-11-11T02:21:08.471Z,82.37
2017-11-11T02:27:12.910Z,83.73
2017-11-11T02:33:16.477Z,83.90
2017-11-11T02:39:20.031Z,84.24
2017-11-11T02:45:24.366Z,83.72
2017-11-11T02:51:28.082Z,84.22
2017-11-11T02:57:32.792Z,84.04
2017-11-11T03:03:37.400Z,84.22
2017-11-11T03:09:41.615Z,83.97
2017-11-11T03:15:46.170Z,84.18
2017-11-11T03:21:50.134Z,84.45
2017-11-11T03:27:54.486Z,84.34
2017-11-11T03:33:58.114Z,84.37
2017-11-11T03:40:03.454Z,84.52
2017-11-11T03:46:07.070Z,84.58
2017-11-11T03:52:11.499Z,83.86
2017-11-11T03:58:15.928Z,83.61
2017-11-11T04:04:19.952Z,85.02
2017-11-11T04:10:24.475Z,85.88
2017-11-11T04:16:28.127Z,85.09
2017-11-11T04:22:32.160Z,85.39
2017-11-11T04:28:36.220Z,85.22
2017-11-11T04:34:39.796Z,85.46
2017-11-11T04:40:44.346Z,85.52
2017-11-11T04:46:48.042Z,86.05
2017-11-11T04:52:52.451Z,87.28
2017-11-11T04:58:57.740Z,88.63
2017-11-11T05:05:01.791Z,89.65
2017-11-11T05:11:05.795Z,89.26
2017-11-11T05:17:10.524Z,89.27
2017-11-11T05:23:15.992Z,89.69
2017-11-11T05:29:19.942Z,90.10
2017-11-11T05:35:26.869Z,90.32
2017-11-11T05:41:31.867Z,90.45
2017-11-11T05:47:35.472Z,89.29
2017-11-11T05:53:39.834Z,88.36
2017-11-11T05:59:43.811Z,88.09
2017-11-11T06:05:47.426Z,88.41
2017-11-11T06:11:51.294Z,88.55
2017-11-11T06:17:56.539Z,88.54
2017-11-11T06:24:00.529Z,88.66
2017-11-11T06:30:04.099Z,89.29
2017-11-11T06:36:08.488Z,89.38
2017-11-11T06:42:12.072Z,88.95
2017-11-11T06:48:15.899Z,88.62
2017-11-11T06:54:20.535Z,88.87
2017-11-11T07:00:25.817Z,89.57
2017-11-11T07:06:29.889Z,89.17
2017-11-11T07:12:35.177Z,88.46
2017-11-11T07:18:39.166Z,87.36
2017-11-11T07:24:44.235Z,87.37
2017-11-11T07:30:48.145Z,87.47
2017-11-11T07:36:51.938Z,87.29
2017-11-11T07:42:55.901Z,88.06
2017-11-11T07:49:01.235Z,87.89
2017-11-11T07:55:07.356Z,87.91
2017-11-11T08:01:11.472Z,87.79
2017-11-11T08:07:17.356Z,87.29
2017-11-11T08:29:41.261Z,86.54
2017-11-11T08:35:44.768Z,86.35
2017-11-11T08:41:48.286Z,86.68
2017-11-11T08:47:51.891Z,87.80
2017-11-11T08:53:55.434Z,88.34
2017-11-11T08:59:58.987Z,88.94
2017-11-11T09:06:02.827Z,89.45
2017-11-11T09:12:06.352Z,89.85
2017-11-11T09:18:09.851Z,89.30
2017-11-11T09:24:13.370Z,89.30
2017-11-11T09:30:16.859Z,89.31
2017-11-11T09:36:20.374Z,88.52
2017-11-11T09:42:24.630Z,88.17
2017-11-11T09:48:28.163Z,85.61
2017-11-11T09:54:32.309Z,86.01
2017-11-11T10:00:35.814Z,87.53
2017-11-11T10:06:39.332Z,88.95
2017-11-11T10:12:43.054Z,90.13
2017-11-11T10:18:46.584Z,90.11
2017-11-11T10:24:50.911Z,88.65
2017-11-11T10:30:54.439Z,89.93
2017-11-11T10:36:57.942Z,91.03
2017-11-11T10:43:01.476Z,91.37
2017-11-11T10:49:05.752Z,90.68
2017-11-11T10:55:10.034Z,90.64
2017-11-11T11:01:13.548Z,91.08
2017-11-11T11:07:17.107Z,90.20
2017-11-11T11:13:20.603Z,89.34
2017-11-11T11:19:24.107Z,89.11
2017-11-11T11:25:27.611Z,89.29
2017-11-11T11:31:32.071Z,89.38
2017-11-11T11:37:35.590Z,89.00
2017-11-11T11:43:39.866Z,88.02
2017-11-11T11:49:43.378Z,88.37
2017-11-11T11:55:47.649Z,87.96
2017-11-11T12:01:51.156Z,87.94
2017-11-11T12:07:54.661Z,87.69
2017-11-11T12:13:58.965Z,87.69
2017-11-11T12:20:03.289Z,87.32
2017-11-11T12:26:06.812Z,87.60
2017-11-11T12:32:10.359Z,87.57
2017-11-11T12:38:13.879Z,86.36
2017-11-11T12:44:17.426Z,85.16
2017-11-11T12:50:20.944Z,85.13
2017-11-11T12:56:24.454Z,84.71
2017-11-11T13:02:27.977Z,84.38
2017-11-11T13:08:31.571Z,83.40
2017-11-11T13:14:35.135Z,83.62
2017-11-11T13:20:39.423Z,83.66
2017-11-11T13:26:42.922Z,83.20
2017-11-11T13:32:47.214Z,83.45
2017-11-11T13:38:51.494Z,84.14
2017-11-11T13:44:55.011Z,83.76
2017-11-11T13:50:59.449Z,84.05
2017-11-11T13:57:02.994Z,84.42
2017-11-11T14:03:07.282Z,84.36
2017-11-11T14:09:11.093Z,85.68
2017-11-11T14:15:15.427Z,85.06
2017-11-11T14:21:18.950Z,85.04
2017-11-11T14:27:23.625Z,85.23
2017-11-11T14:33:27.137Z,84.86
2017-11-11T14:39:30.996Z,85.89
2017-11-11T14:45:34.508Z,86.22
2017-11-11T14:51:38.350Z,87.45
2017-11-11T14:57:42.620Z,87.63
2017-11-11T15:03:46.155Z,87.82
2017-11-11T15:09:49.682Z,88.02
2017-11-11T15:15:53.523Z,88.41
2017-11-11T15:21:57.793Z,88.61
2017-11-11T15:28:01.272Z,88.89
2017-11-11T15:34:05.174Z,88.49
2017-11-11T15:40:08.660Z,88.70
2017-11-11T15:46:13.037Z,88.68
2017-11-11T15:52:17.349Z,88.58
2017-11-11T15:58:20.858Z,88.59
2017-11-11T16:04:24.285Z,88.60
2017-11-11T16:10:28.005Z,88.84
2017-11-11T16:16:31.548Z,88.86
2017-11-11T16:22:35.016Z,89.17
2017-11-11T16:28:38.469Z,89.03
2017-11-11T16:34:41.943Z,89.01
2017-11-11T16:40:45.443Z,89.42
2017-11-11T16:46:49.009Z,90.29
2017-11-11T16:52:52.462Z,91.03
2017-11-11T16:58:55.928Z,90.35
2017-11-11T17:05:00.324Z,90.33
2017-11-11T17:11:03.787Z,89.60
2017-11-11T17:17:07.647Z,88.54
2017-11-11T17:23:11.078Z,88.50
2017-11-11T17:29:16.691Z,89.13
2017-11-11T17:35:20.408Z,89.46
2017-11-11T17:41:25.014Z,89.00
2017-11-11T18:03:38.521Z,89.84
2017-11-11T18:09:42.817Z,90.09
2017-11-11T18:15:46.811Z,89.78
2017-11-11T18:21:50.880Z,89.76
2017-11-11T18:27:54.400Z,90.13
2017-11-11T18:34:04.135Z,90.34
2017-11-11T18:59:37.801Z,91.02
2017-11-11T19:05:41.403Z,90.56
2017-11-11T19:27:59.940Z,88.30
2017-11-11T19:34:03.466Z,88.39
2017-11-11T19:40:06.982Z,88.30
2017-11-11T19:46:10.512Z,88.51
2017-11-11T19:52:14.290Z,87.91
2017-11-11T19:58:18.645Z,87.22
2017-11-11T20:04:23.550Z,87.92
2017-11-11T20:10:28.059Z,87.92
2017-11-11T20:16:31.616Z,88.21
2017-11-11T20:22:36.402Z,88.62
2017-11-11T20:28:39.922Z,88.58
2017-11-11T20:34:45.652Z,88.57
2017-11-11T20:40:49.478Z,87.86
2017-11-11T20:59:53.084Z,87.34
2017-11-11T21:05:56.631Z,87.08
2017-11-11T21:12:00.911Z,87.40
2017-11-11T21:18:05.661Z,86.45
2017-11-11T21:24:09.125Z,85.93
2017-11-11T21:30:12.671Z,86.32
2017-11-11T21:36:16.212Z,85.89
2017-11-11T21:42:19.999Z,86.55
2017-11-11T21:48:24.499Z,86.36
2017-11-11T21:54:28.099Z,85.87
2017-11-11T22:00:31.962Z,86.61
2017-11-11T22:06:35.487Z,86.89
2017-11-11T22:12:39.801Z,86.86
2017-11-11T22:18:43.333Z,86.76
2017-11-11T22:24:46.966Z,87.05
2017-11-11T22:30:50.552Z,86.95
2017-11-11T22:36:54.110Z,86.68
2017-11-11T22:42:57.648Z,86.91
2017-11-11T22:49:01.156Z,87.26
2017-11-11T22:55:04.727Z,86.31
2017-11-11T23:01:08.454Z,87.05
2017-11-11T23:20:12.108Z,87.88
2017-11-11T23:26:16.644Z,87.73
2017-11-11T23:32:20.224Z,88.16
2017-11-11T23:38:24.830Z,88.24
2017-11-11T23:44:28.402Z,88.44
2017-11-11T23:50:32.047Z,87.31
2017-11-11T23:56:35.611Z,86.54
